KLM2636 LIML-EHAM
Flight info
| Callsign | KLM2636 |
|---|---|
| Flight time | 1h 25m |
| Altitude | 36000 |
| Route | ARLES DCT PUNSA DCT VADEM DCT GILIR DCT PENDU DCT IXILU DCT EPL DCT ROUSY DCT KOMOB DCT BUB Y28 HELEN |
| Aircraft | B738/M-SDE2E3FGHIRWXY/LB1 |
Departure
| Time | 2026-05-04 09:07 |
|---|---|
| Airport | Milano Linate Airport (LIML) |
Arrival
| Time | 2026-05-04 10:33 |
|---|---|
| Airport | Amsterdam Airport Schiphol (EHAM) |
| Time | Latitude | Longitude | Altitude | Speed | Heading |
|---|---|---|---|---|---|
| 2026-05-04 08:20 | 45.46000 | 9.27856 | 361 ft | 0 kts | 360° |
| 2026-05-04 08:53 | 45.45993 | 9.27856 | 361 ft | 2 kts | 360° |
| 2026-05-04 08:54 | 45.45951 | 9.27856 | 361 ft | 0 kts | 360° |
| 2026-05-04 08:57 | 45.45905 | 9.27962 | 361 ft | 6 kts | 120° |
| 2026-05-04 09:01 | 45.44940 | 9.27929 | 361 ft | 9 kts | 175° |
| 2026-05-04 09:01 | 45.44880 | 9.27935 | 361 ft | 8 kts | 176° |
| 2026-05-04 09:01 | 45.44824 | 9.27942 | 361 ft | 8 kts | 175° |
| 2026-05-04 09:01 | 45.44768 | 9.27947 | 361 ft | 8 kts | 175° |
| 2026-05-04 09:02 | 45.44707 | 9.27954 | 361 ft | 9 kts | 175° |
| 2026-05-04 09:02 | 45.44641 | 9.27962 | 361 ft | 10 kts | 175° |
| 2026-05-04 09:02 | 45.44569 | 9.27969 | 361 ft | 11 kts | 175° |
| 2026-05-04 09:02 | 45.44492 | 9.27978 | 361 ft | 11 kts | 175° |
| 2026-05-04 09:03 | 45.44411 | 9.27987 | 361 ft | 12 kts | 175° |
| 2026-05-04 09:03 | 45.44325 | 9.27996 | 361 ft | 13 kts | 177° |
| 2026-05-04 09:03 | 45.44236 | 9.28006 | 361 ft | 13 kts | 175° |
| 2026-05-04 09:03 | 45.44142 | 9.28016 | 361 ft | 14 kts | 176° |
| 2026-05-04 09:04 | 45.44045 | 9.28027 | 361 ft | 14 kts | 175° |
| 2026-05-04 09:04 | 45.43945 | 9.28038 | 361 ft | 15 kts | 176° |
| 2026-05-04 09:04 | 45.43842 | 9.28049 | 361 ft | 15 kts | 175° |
| 2026-05-04 09:04 | 45.43740 | 9.28060 | 361 ft | 13 kts | 175° |
| 2026-05-04 09:05 | 45.43661 | 9.28069 | 361 ft | 10 kts | 175° |
| 2026-05-04 09:05 | 45.43582 | 9.28077 | 361 ft | 12 kts | 175° |
| 2026-05-04 09:05 | 45.43514 | 9.28084 | 361 ft | 7 kts | 179° |
| 2026-05-04 09:05 | 45.43484 | 9.28073 | 361 ft | 3 kts | 207° |
| 2026-05-04 09:06 | 45.43462 | 9.28050 | 361 ft | 6 kts | 229° |
| 2026-05-04 09:07 | 45.46212 | 9.27677 | 1215 ft | 171 kts | 0° |
| 2026-05-04 09:08 | 45.47398 | 9.27663 | 2091 ft | 167 kts | 351° |
| 2026-05-04 09:08 | 45.48521 | 9.27189 | 2833 ft | 176 kts | 336° |
| 2026-05-04 09:08 | 45.49694 | 9.26348 | 3235 ft | 203 kts | 330° |
| 2026-05-04 09:08 | 45.50987 | 9.25233 | 3548 ft | 232 kts | 330° |
| 2026-05-04 09:09 | 45.52517 | 9.24204 | 4101 ft | 253 kts | 338° |
| 2026-05-04 09:09 | 45.54221 | 9.23349 | 4824 ft | 265 kts | 343° |
| 2026-05-04 09:09 | 45.56005 | 9.22569 | 5690 ft | 271 kts | 342° |
| 2026-05-04 09:09 | 45.57922 | 9.21709 | 6637 ft | 276 kts | 342° |
| 2026-05-04 09:10 | 45.59732 | 9.20728 | 7492 ft | 281 kts | 334° |
| 2026-05-04 09:10 | 45.61449 | 9.19344 | 8334 ft | 286 kts | 322° |
| 2026-05-04 09:10 | 45.62398 | 9.17888 | 8910 ft | 287 kts | 301° |
| 2026-05-04 09:10 | 45.63007 | 9.15199 | 9766 ft | 287 kts | 276° |
| 2026-05-04 09:11 | 45.63217 | 9.12395 | 10641 ft | 289 kts | 278° |
| 2026-05-04 09:11 | 45.63618 | 9.09494 | 11329 ft | 301 kts | 281° |
| 2026-05-04 09:11 | 45.64077 | 9.06484 | 11721 ft | 320 kts | 279° |
| 2026-05-04 09:11 | 45.64623 | 9.03293 | 12049 ft | 342 kts | 286° |
| 2026-05-04 09:12 | 45.65568 | 9.00098 | 12563 ft | 356 kts | 295° |
| 2026-05-04 09:12 | 45.66803 | 8.96996 | 13326 ft | 361 kts | 299° |
| 2026-05-04 09:14 | 45.76520 | 8.75227 | 18402 ft | 381 kts | 299° |
| 2026-05-04 09:14 | 45.77935 | 8.71997 | 19018 ft | 385 kts | 299° |
| 2026-05-04 09:14 | 45.79379 | 8.68703 | 19654 ft | 388 kts | 299° |
| 2026-05-04 09:14 | 45.80807 | 8.65436 | 20264 ft | 391 kts | 299° |
| 2026-05-04 09:15 | 45.82251 | 8.62136 | 20854 ft | 394 kts | 299° |
| 2026-05-04 09:15 | 45.83712 | 8.58789 | 21428 ft | 397 kts | 299° |
| 2026-05-04 09:15 | 45.85188 | 8.55400 | 21987 ft | 400 kts | 299° |
| 2026-05-04 09:15 | 45.86683 | 8.51950 | 22537 ft | 403 kts | 299° |
| 2026-05-04 09:17 | 45.98823 | 8.23837 | 26288 ft | 425 kts | 298° |
| 2026-05-04 09:18 | 46.00379 | 8.20208 | 26683 ft | 428 kts | 298° |
| 2026-05-04 09:18 | 46.01943 | 8.16554 | 27069 ft | 430 kts | 298° |
| 2026-05-04 09:18 | 46.03516 | 8.12875 | 27444 ft | 433 kts | 298° |
| 2026-05-04 09:18 | 46.05098 | 8.09170 | 27807 ft | 436 kts | 298° |
| 2026-05-04 09:19 | 46.06713 | 8.05389 | 28167 ft | 438 kts | 298° |
| 2026-05-04 09:19 | 46.08312 | 8.01639 | 28525 ft | 440 kts | 298° |
| 2026-05-04 09:19 | 46.09924 | 7.97872 | 28852 ft | 443 kts | 298° |
| 2026-05-04 09:19 | 46.11527 | 7.94118 | 29169 ft | 445 kts | 298° |
| 2026-05-04 09:20 | 46.13165 | 7.90268 | 29489 ft | 447 kts | 298° |
| 2026-05-04 09:20 | 46.14795 | 7.86431 | 29797 ft | 450 kts | 298° |
| 2026-05-04 09:20 | 46.16450 | 7.82528 | 30155 ft | 450 kts | 298° |
| 2026-05-04 09:20 | 46.18076 | 7.78686 | 30641 ft | 447 kts | 298° |
| 2026-05-04 09:21 | 46.19686 | 7.74877 | 31139 ft | 444 kts | 298° |
| 2026-05-04 09:21 | 46.21315 | 7.71016 | 31561 ft | 442 kts | 298° |
| 2026-05-04 09:21 | 46.22909 | 7.67232 | 32023 ft | 439 kts | 297° |
| 2026-05-04 09:21 | 46.24533 | 7.63372 | 32480 ft | 437 kts | 297° |
| 2026-05-04 09:22 | 46.26120 | 7.59604 | 32835 ft | 437 kts | 297° |
| 2026-05-04 09:22 | 46.27714 | 7.55869 | 33217 ft | 435 kts | 297° |
| 2026-05-04 09:22 | 46.29296 | 7.52150 | 33628 ft | 433 kts | 297° |
| 2026-05-04 09:22 | 46.30867 | 7.48443 | 33993 ft | 432 kts | 297° |
| 2026-05-04 09:23 | 46.32459 | 7.44672 | 34181 ft | 436 kts | 297° |
| 2026-05-04 09:23 | 46.34047 | 7.40905 | 34257 ft | 441 kts | 297° |
| 2026-05-04 09:23 | 46.35640 | 7.37110 | 34563 ft | 441 kts | 297° |
| 2026-05-04 09:23 | 46.37225 | 7.33328 | 34924 ft | 439 kts | 297° |
| 2026-05-04 09:25 | 46.48301 | 7.06724 | 36025 ft | 439 kts | 296° |
| 2026-05-04 09:25 | 46.49896 | 7.02873 | 36026 ft | 437 kts | 296° |
| 2026-05-04 09:26 | 46.53023 | 6.95300 | 36026 ft | 438 kts | 296° |
| 2026-05-04 09:26 | 46.56176 | 6.87662 | 36030 ft | 438 kts | 296° |
| 2026-05-04 09:27 | 46.59300 | 6.80119 | 36031 ft | 438 kts | 296° |
| 2026-05-04 09:27 | 46.62418 | 6.72506 | 36028 ft | 438 kts | 296° |
| 2026-05-04 09:28 | 46.65531 | 6.64857 | 36029 ft | 438 kts | 296° |
| 2026-05-04 09:28 | 46.68631 | 6.57215 | 36030 ft | 438 kts | 296° |
| 2026-05-04 09:29 | 46.72208 | 6.49986 | 36029 ft | 448 kts | 311° |
| 2026-05-04 09:29 | 46.77371 | 6.44726 | 36044 ft | 459 kts | 327° |
| 2026-05-04 09:30 | 46.83110 | 6.40577 | 36048 ft | 461 kts | 329° |
| 2026-05-04 09:30 | 46.88885 | 6.36468 | 36043 ft | 461 kts | 329° |
| 2026-05-04 09:31 | 46.94600 | 6.32360 | 36044 ft | 461 kts | 329° |
| 2026-05-04 09:31 | 47.00345 | 6.28210 | 36045 ft | 460 kts | 329° |
| 2026-05-04 09:32 | 47.06089 | 6.24055 | 36046 ft | 461 kts | 329° |
| 2026-05-04 09:34 | 47.28205 | 6.08154 | 36052 ft | 461 kts | 329° |
| 2026-05-04 09:34 | 47.34152 | 6.04545 | 36051 ft | 468 kts | 341° |
| 2026-05-04 09:35 | 47.38428 | 6.03478 | 36053 ft | 474 kts | 352° |
| 2026-05-04 09:35 | 47.40659 | 6.03324 | 36054 ft | 476 kts | 355° |
| 2026-05-04 09:35 | 47.47293 | 6.03471 | 36053 ft | 477 kts | 358° |
| 2026-05-04 09:37 | 47.73822 | 6.04098 | 36053 ft | 477 kts | 358° |
| 2026-05-04 09:38 | 47.80461 | 6.04298 | 36050 ft | 477 kts | 358° |
| 2026-05-04 09:38 | 47.87097 | 6.04504 | 36049 ft | 477 kts | 358° |
| 2026-05-04 09:39 | 47.93740 | 6.04711 | 36046 ft | 477 kts | 358° |
| 2026-05-04 09:39 | 48.00376 | 6.04917 | 36043 ft | 477 kts | 358° |
| 2026-05-04 09:40 | 48.07018 | 6.05122 | 36038 ft | 477 kts | 358° |
| 2026-05-04 09:40 | 48.13655 | 6.05329 | 36034 ft | 477 kts | 358° |
| 2026-05-04 09:42 | 48.40257 | 6.06292 | 36026 ft | 477 kts | 359° |
| 2026-05-04 09:43 | 48.46896 | 6.06612 | 36033 ft | 477 kts | 359° |
| 2026-05-04 09:43 | 48.53579 | 6.06933 | 36042 ft | 477 kts | 359° |
| 2026-05-04 09:44 | 48.60210 | 6.07251 | 36044 ft | 477 kts | 359° |
| 2026-05-04 09:46 | 48.86713 | 6.08521 | 36028 ft | 477 kts | 358° |
| 2026-05-04 09:46 | 48.93393 | 6.08845 | 36026 ft | 477 kts | 358° |
| 2026-05-04 09:47 | 48.99986 | 6.09164 | 36025 ft | 477 kts | 358° |
| 2026-05-04 09:49 | 49.23262 | 6.10298 | 36572 ft | 479 kts | 358° |
| 2026-05-04 09:49 | 49.26587 | 6.10462 | 36908 ft | 478 kts | 358° |
| 2026-05-04 09:49 | 49.29909 | 6.10625 | 37167 ft | 478 kts | 359° |
| 2026-05-04 09:51 | 49.49565 | 6.08841 | 38020 ft | 463 kts | 330° |
| 2026-05-04 09:51 | 49.54975 | 6.03692 | 38023 ft | 455 kts | 320° |
| 2026-05-04 09:52 | 49.60091 | 5.97952 | 38022 ft | 455 kts | 319° |
| 2026-05-04 09:52 | 49.65234 | 5.92212 | 38021 ft | 456 kts | 319° |
| 2026-05-04 09:53 | 49.70379 | 5.86492 | 38019 ft | 455 kts | 319° |
| 2026-05-04 09:53 | 49.75532 | 5.80767 | 38018 ft | 456 kts | 319° |
| 2026-05-04 09:54 | 49.80706 | 5.75072 | 38017 ft | 456 kts | 319° |
| 2026-05-04 09:54 | 49.85873 | 5.69352 | 38017 ft | 456 kts | 319° |
| 2026-05-04 09:55 | 49.91034 | 5.63642 | 38015 ft | 456 kts | 319° |
| 2026-05-04 09:55 | 49.96197 | 5.57896 | 38014 ft | 456 kts | 319° |
| 2026-05-04 09:56 | 50.01345 | 5.52124 | 38013 ft | 456 kts | 319° |
| 2026-05-04 09:56 | 50.06450 | 5.46376 | 38014 ft | 456 kts | 319° |
| 2026-05-04 09:57 | 50.11624 | 5.40536 | 38021 ft | 456 kts | 319° |
| 2026-05-04 09:57 | 50.16776 | 5.34780 | 38021 ft | 456 kts | 320° |
| 2026-05-04 09:58 | 50.21994 | 5.29138 | 38022 ft | 456 kts | 320° |
| 2026-05-04 09:58 | 50.27208 | 5.23469 | 38022 ft | 456 kts | 320° |
| 2026-05-04 10:00 | 50.48121 | 5.00587 | 38023 ft | 457 kts | 320° |
| 2026-05-04 10:02 | 50.65562 | 4.81370 | 35096 ft | 455 kts | 319° |
| 2026-05-04 10:04 | 50.83726 | 4.61089 | 31197 ft | 436 kts | 318° |
| 2026-05-04 10:04 | 50.86188 | 4.58319 | 30712 ft | 433 kts | 318° |
| 2026-05-04 10:04 | 50.88549 | 4.55307 | 30225 ft | 424 kts | 310° |
| 2026-05-04 10:04 | 50.90617 | 4.51823 | 29728 ft | 414 kts | 302° |
| 2026-05-04 10:05 | 50.92308 | 4.48189 | 29255 ft | 407 kts | 297° |
| 2026-05-04 10:05 | 50.93919 | 4.44268 | 28763 ft | 403 kts | 296° |
| 2026-05-04 10:05 | 50.95403 | 4.40493 | 28295 ft | 400 kts | 295° |
| 2026-05-04 10:05 | 50.96859 | 4.36752 | 27833 ft | 397 kts | 295° |
| 2026-05-04 10:06 | 50.98283 | 4.33071 | 27378 ft | 395 kts | 295° |
| 2026-05-04 10:06 | 50.99731 | 4.29313 | 26913 ft | 393 kts | 295° |
| 2026-05-04 10:06 | 51.01131 | 4.25667 | 26461 ft | 391 kts | 295° |
| 2026-05-04 10:08 | 51.09232 | 4.05128 | 23879 ft | 388 kts | 304° |
| 2026-05-04 10:08 | 51.11166 | 4.01936 | 23410 ft | 392 kts | 311° |
| 2026-05-04 10:08 | 51.13260 | 3.99133 | 22948 ft | 394 kts | 316° |
| 2026-05-04 10:08 | 51.15451 | 3.96511 | 22488 ft | 394 kts | 319° |
| 2026-05-04 10:09 | 51.17658 | 3.93929 | 22031 ft | 393 kts | 319° |
| 2026-05-04 10:09 | 51.19851 | 3.91339 | 21576 ft | 391 kts | 319° |
| 2026-05-04 10:09 | 51.22161 | 3.89030 | 21118 ft | 395 kts | 330° |
| 2026-05-04 10:09 | 51.24766 | 3.87574 | 20649 ft | 400 kts | 343° |
| 2026-05-04 10:10 | 51.27568 | 3.86874 | 20187 ft | 401 kts | 351° |
| 2026-05-04 10:10 | 51.30420 | 3.86632 | 19727 ft | 401 kts | 355° |
| 2026-05-04 10:10 | 51.33243 | 3.86585 | 19275 ft | 399 kts | 357° |
| 2026-05-04 10:10 | 51.35975 | 3.86574 | 18840 ft | 397 kts | 357° |
| 2026-05-04 10:11 | 51.38730 | 3.86552 | 18399 ft | 395 kts | 357° |
| 2026-05-04 10:11 | 51.41468 | 3.86514 | 17966 ft | 392 kts | 357° |
| 2026-05-04 10:11 | 51.44185 | 3.86467 | 17535 ft | 389 kts | 357° |
| 2026-05-04 10:11 | 51.46884 | 3.86415 | 17105 ft | 387 kts | 357° |
| 2026-05-04 10:12 | 51.49569 | 3.86359 | 16677 ft | 384 kts | 357° |
| 2026-05-04 10:12 | 51.52235 | 3.86300 | 16253 ft | 382 kts | 356° |
| 2026-05-04 10:12 | 51.54887 | 3.86239 | 15831 ft | 380 kts | 356° |
| 2026-05-04 10:12 | 51.57520 | 3.86177 | 15414 ft | 377 kts | 356° |
| 2026-05-04 10:13 | 51.60137 | 3.86115 | 14999 ft | 375 kts | 357° |
| 2026-05-04 10:13 | 51.62740 | 3.86052 | 14586 ft | 373 kts | 356° |
| 2026-05-04 10:13 | 51.65325 | 3.85989 | 14176 ft | 371 kts | 357° |
| 2026-05-04 10:13 | 51.67901 | 3.85926 | 13765 ft | 369 kts | 356° |
| 2026-05-04 10:14 | 51.70460 | 3.86095 | 13353 ft | 369 kts | 7° |
| 2026-05-04 10:14 | 51.72907 | 3.87316 | 12928 ft | 370 kts | 24° |
| 2026-05-04 10:16 | 51.86089 | 4.05700 | 10512 ft | 325 kts | 41° |
| 2026-05-04 10:16 | 51.87731 | 4.08094 | 10358 ft | 311 kts | 41° |
| 2026-05-04 10:16 | 51.89384 | 4.10498 | 10199 ft | 303 kts | 41° |
| 2026-05-04 10:16 | 51.90881 | 4.12679 | 10020 ft | 301 kts | 41° |
| 2026-05-04 10:17 | 51.92476 | 4.14998 | 9817 ft | 300 kts | 41° |
| 2026-05-04 10:17 | 51.94028 | 4.17257 | 9640 ft | 297 kts | 41° |
| 2026-05-04 10:19 | 52.04625 | 4.32768 | 8414 ft | 290 kts | 41° |
| 2026-05-04 10:19 | 52.06122 | 4.34968 | 8239 ft | 289 kts | 41° |
| 2026-05-04 10:19 | 52.07607 | 4.37153 | 8064 ft | 288 kts | 41° |
| 2026-05-04 10:19 | 52.09091 | 4.39335 | 7889 ft | 287 kts | 41° |
| 2026-05-04 10:20 | 52.10583 | 4.41487 | 7713 ft | 286 kts | 41° |
| 2026-05-04 10:20 | 52.12083 | 4.43659 | 7536 ft | 285 kts | 41° |
| 2026-05-04 10:20 | 52.13546 | 4.45793 | 7362 ft | 284 kts | 41° |
| 2026-05-04 10:20 | 52.15016 | 4.47947 | 7186 ft | 284 kts | 41° |
| 2026-05-04 10:21 | 52.16475 | 4.50092 | 7016 ft | 283 kts | 41° |
| 2026-05-04 10:21 | 52.17922 | 4.52227 | 6995 ft | 278 kts | 41° |
| 2026-05-04 10:21 | 52.19356 | 4.54348 | 6994 ft | 278 kts | 41° |
| 2026-05-04 10:21 | 52.20306 | 4.55755 | 6996 ft | 280 kts | 41° |
| 2026-05-04 10:22 | 52.23744 | 4.60862 | 6995 ft | 283 kts | 41° |
| 2026-05-04 10:22 | 52.25221 | 4.63061 | 6990 ft | 275 kts | 41° |
| 2026-05-04 10:22 | 52.26165 | 4.64467 | 6985 ft | 267 kts | 41° |
| 2026-05-04 10:23 | 52.27558 | 4.66544 | 6981 ft | 257 kts | 41° |
| 2026-05-04 10:23 | 52.28867 | 4.68497 | 6982 ft | 252 kts | 41° |
| 2026-05-04 10:25 | 52.37918 | 4.81851 | 6994 ft | 250 kts | 41° |
| 2026-05-04 10:25 | 52.39209 | 4.83768 | 6991 ft | 251 kts | 45° |
| 2026-05-04 10:25 | 52.40155 | 4.86145 | 6978 ft | 251 kts | 68° |
| 2026-05-04 10:25 | 52.40537 | 4.88919 | 6995 ft | 252 kts | 83° |
| 2026-05-04 10:26 | 52.40647 | 4.91854 | 6815 ft | 256 kts | 89° |
| 2026-05-04 10:26 | 52.40668 | 4.94756 | 6590 ft | 253 kts | 89° |
| 2026-05-04 10:26 | 52.40726 | 4.97616 | 6365 ft | 250 kts | 88° |
| 2026-05-04 10:26 | 52.40805 | 5.00482 | 6135 ft | 247 kts | 88° |
| 2026-05-04 10:27 | 52.40888 | 5.03272 | 5874 ft | 245 kts | 88° |
| 2026-05-04 10:27 | 52.40644 | 5.06004 | 5519 ft | 243 kts | 116° |
| 2026-05-04 10:27 | 52.39523 | 5.07925 | 5172 ft | 232 kts | 152° |
| 2026-05-04 10:27 | 52.37999 | 5.08736 | 4809 ft | 225 kts | 170° |
| 2026-05-04 10:28 | 52.36458 | 5.08900 | 4429 ft | 220 kts | 187° |
| 2026-05-04 10:28 | 52.35055 | 5.08113 | 4057 ft | 211 kts | 207° |
| 2026-05-04 10:28 | 52.33841 | 5.06829 | 3679 ft | 204 kts | 216° |
| 2026-05-04 10:28 | 52.32895 | 5.05114 | 3279 ft | 199 kts | 240° |
| 2026-05-04 10:29 | 52.32499 | 5.02997 | 2978 ft | 190 kts | 263° |
| 2026-05-04 10:29 | 52.32480 | 5.00800 | 2532 ft | 185 kts | 269° |
| 2026-05-04 10:29 | 52.32460 | 4.98763 | 2236 ft | 173 kts | 268° |
| 2026-05-04 10:29 | 52.32414 | 4.96877 | 2040 ft | 154 kts | 266° |
| 2026-05-04 10:30 | 52.32364 | 4.95212 | 1831 ft | 141 kts | 266° |
| 2026-05-04 10:30 | 52.32313 | 4.93653 | 1625 ft | 134 kts | 266° |
| 2026-05-04 10:30 | 52.32263 | 4.92150 | 1468 ft | 132 kts | 266° |
| 2026-05-04 10:30 | 52.32212 | 4.90644 | 1303 ft | 131 kts | 265° |
| 2026-05-04 10:31 | 52.32163 | 4.89189 | 1133 ft | 130 kts | 265° |
| 2026-05-04 10:31 | 52.32110 | 4.87665 | 956 ft | 130 kts | 265° |
| 2026-05-04 10:32 | 52.31806 | 4.78831 | -1 ft | 110 kts | 263° |
| 2026-05-04 10:33 | 52.31777 | 4.77910 | -3 ft | 54 kts | 264° |
| 2026-05-04 10:33 | 52.31765 | 4.77576 | -3 ft | 6 kts | 268° |
| 2026-05-04 10:33 | 52.31764 | 4.77521 | -3 ft | 11 kts | 268° |
| 2026-05-04 10:33 | 52.31756 | 4.77311 | -3 ft | 25 kts | 267° |
| 2026-05-04 10:34 | 52.31739 | 4.77032 | -3 ft | 22 kts | 239° |
| 2026-05-04 10:34 | 52.31673 | 4.76851 | -3 ft | 18 kts | 221° |
| 2026-05-04 10:34 | 52.31611 | 4.76695 | -3 ft | 15 kts | 243° |
| 2026-05-04 10:34 | 52.31563 | 4.76572 | -3 ft | 10 kts | 217° |
| 2026-05-04 10:35 | 52.31517 | 4.76523 | -3 ft | 6 kts | 215° |
| 2026-05-04 10:35 | 52.31492 | 4.76494 | -3 ft | 5 kts | 216° |
| 2026-05-04 10:35 | 52.31448 | 4.76442 | -3 ft | 10 kts | 217° |
| 2026-05-04 10:35 | 52.31382 | 4.76421 | -3 ft | 9 kts | 165° |
| 2026-05-04 10:36 | 52.31334 | 4.76442 | -3 ft | 8 kts | 165° |
| 2026-05-04 10:36 | 52.31285 | 4.76506 | -3 ft | 9 kts | 117° |
| 2026-05-04 10:36 | 52.31266 | 4.76566 | -3 ft | 3 kts | 118° |
| 2026-05-04 10:36 | 52.31262 | 4.76579 | -3 ft | 2 kts | 118° |
| 2026-05-04 10:37 | 52.31255 | 4.76600 | -3 ft | 0 kts | 117° |